KFRH/FRH METAR and TAF weather

Enter ICAO airport designator
Station Type Date Time Source
KFRH METAR 2019/06/19 03:55 UTC NOAA

KFRH 190355Z AUTO 00000KT 2SM SCT002 BKN100 20/20 A2986 RMK AO1


Station Type Date Time Source
KFRH Decoded METAR 2019/06/19 03:55 UTC NOAA

Station name not available
Jun 18, 2019 - 11:55 PM EDT / 2019.06.19 0355 UTC
Wind: Calm:0
Visibility: 2 mile(s):0
Sky conditions: mostly cloudy
Temperature: 68 F (20 C)
Dew Point: 68 F (20 C)
Relative Humidity: 100%
Pressure (altimeter): 29.86 in. Hg (1011 hPa)
ob: KFRH 190355Z AUTO 00000KT 2SM SCT002 BKN100 20/20 A2986 RMK AO1
cycle: 4

Station Type Date Time Source
KFRH TAF UTC NOAA

Error!

Example: see airport list